Terminal Aerodrome Forecast
Issued by NWS Billings, MT

Home | Current Version | Previous Version | Text Only | Print | Product List | Glossary On
Versions: 1 2 3 4 5 6 7 8 9 10 11 12 13 14 15 16 17 18 19
000
FTUS45 KBYZ 231636 AAB
TAFMLS
TAF AMD
KMLS 231636Z 2317/2412 07011KT P6SM OVC008
      TEMPO 2317/2318 FEW008 BKN120
     FM231900 10015KT P6SM BKN090
     FM240300 33010KT P6SM VCSH SCT025 BKN050=

USA.gov is the U.S. government's official web portal to all federal, state and local government web resources and services.